sensor_id;sensor_type;location;lat;lon;timestamp;pressure;altitude;pressure_sealevel;temperature;humidity
51259;BME280;37327;54.254;18.504;2023-02-14T00:00:45;102603.73;;;2.89;100.00
51259;BME280;37327;54.254;18.504;2023-02-14T00:03:54;102600.13;;;2.90;100.00
51259;BME280;37327;54.254;18.504;2023-02-14T00:07:06;102584.96;;;2.90;100.00
51259;BME280;37327;54.254;18.504;2023-02-14T00:10:13;102590.30;;;2.90;100.00
51259;BME280;37327;54.254;18.504;2023-02-14T00:13:20;102592.90;;;2.92;100.00
51259;BME280;37327;54.254;18.504;2023-02-14T00:16:27;102603.58;;;2.92;100.00
51259;BME280;37327;54.254;18.504;2023-02-14T00:19:34;102605.27;;;2.93;100.00
51259;BME280;37327;54.254;18.504;2023-02-14T00:22:42;102611.42;;;2.95;100.00
51259;BME280;37327;54.254;18.504;2023-02-14T00:25:49;102609.53;;;2.97;100.00
51259;BME280;37327;54.254;18.504;2023-02-14T00:28:56;102606.88;;;2.97;100.00
51259;BME280;37327;54.254;18.504;2023-02-14T00:32:03;102616.52;;;3.00;100.00
51259;BME280;37327;54.254;18.504;2023-02-14T00:35:10;102613.66;;;3.03;100.00
51259;BME280;37327;54.254;18.504;2023-02-14T00:38:18;102617.21;;;3.03;100.00
51259;BME280;37327;54.254;18.504;2023-02-14T00:41:25;102622.48;;;3.05;100.00
51259;BME280;37327;54.254;18.504;2023-02-14T00:44:32;102621.52;;;3.06;100.00
51259;BME280;37327;54.254;18.504;2023-02-14T00:47:39;102619.55;;;3.09;100.00
51259;BME280;37327;54.254;18.504;2023-02-14T00:50:45;102624.82;;;3.11;100.00
51259;BME280;37327;54.254;18.504;2023-02-14T00:53:53;102621.27;;;3.10;100.00
51259;BME280;37327;54.254;18.504;2023-02-14T00:57:00;102621.27;;;3.10;100.00
51259;BME280;37327;54.254;18.504;2023-02-14T01:00:08;102619.48;;;3.11;100.00
51259;BME280;37327;54.254;18.504;2023-02-14T01:03:15;102615.15;;;3.08;100.00
51259;BME280;37327;54.254;18.504;2023-02-14T01:06:22;102615.15;;;3.08;100.00
51259;BME280;37327;54.254;18.504;2023-02-14T01:09:30;102611.70;;;3.06;100.00
51259;BME280;37327;54.254;18.504;2023-02-14T01:12:37;102614.48;;;3.05;100.00
51259;BME280;37327;54.254;18.504;2023-02-14T01:15:47;102618.92;;;3.04;100.00
51259;BME280;37327;54.254;18.504;2023-02-14T01:18:54;102622.56;;;3.03;100.00
51259;BME280;37327;54.254;18.504;2023-02-14T01:22:02;102626.33;;;2.99;100.00
51259;BME280;37327;54.254;18.504;2023-02-14T01:25:09;102623.66;;;2.99;100.00
51259;BME280;37327;54.254;18.504;2023-02-14T01:28:16;102633.55;;;2.97;100.00
51259;BME280;37327;54.254;18.504;2023-02-14T01:31:26;102646.97;;;2.95;100.00
51259;BME280;37327;54.254;18.504;2023-02-14T01:34:33;102642.49;;;2.96;100.00
51259;BME280;37327;54.254;18.504;2023-02-14T01:37:40;102641.45;;;2.99;100.00
51259;BME280;37327;54.254;18.504;2023-02-14T01:40:48;102641.23;;;3.03;100.00
51259;BME280;37327;54.254;18.504;2023-02-14T01:44:01;102649.17;;;3.05;100.00
51259;BME280;37327;54.254;18.504;2023-02-14T01:47:09;102643.73;;;3.06;100.00
51259;BME280;37327;54.254;18.504;2023-02-14T01:50:21;102638.39;;;3.06;100.00
51259;BME280;37327;54.254;18.504;2023-02-14T01:53:30;102640.98;;;3.08;100.00
51259;BME280;37327;54.254;18.504;2023-02-14T01:56:42;102642.73;;;3.09;100.00
51259;BME280;37327;54.254;18.504;2023-02-14T01:59:54;102646.25;;;3.09;100.00
51259;BME280;37327;54.254;18.504;2023-02-14T02:03:07;102647.95;;;3.10;100.00
51259;BME280;37327;54.254;18.504;2023-02-14T02:06:24;102642.62;;;3.10;100.00
51259;BME280;37327;54.254;18.504;2023-02-14T02:09:38;102640.73;;;3.12;100.00
51259;BME280;37327;54.254;18.504;2023-02-14T02:12:51;102630.15;;;3.11;100.00
51259;BME280;37327;54.254;18.504;2023-02-14T02:19:34;102635.72;;;3.06;100.00
51259;BME280;37327;54.254;18.504;2023-02-14T02:53:11;102649.48;;;2.81;100.00
51259;BME280;37327;54.254;18.504;2023-02-14T02:59:48;102650.50;;;2.79;100.00
51259;BME280;37327;54.254;18.504;2023-02-14T03:02:58;102661.17;;;2.79;100.00
51259;BME280;37327;54.254;18.504;2023-02-14T03:06:17;102661.17;;;2.79;100.00
51259;BME280;37327;54.254;18.504;2023-02-14T03:26:33;102652.56;;;2.73;100.00
51259;BME280;37327;54.254;18.504;2023-02-14T03:29:43;102660.56;;;2.73;100.00
51259;BME280;37327;54.254;18.504;2023-02-14T03:33:02;102658.81;;;2.72;100.00
51259;BME280;37327;54.254;18.504;2023-02-14T03:39:44;102659.75;;;2.71;100.00
51259;BME280;37327;54.254;18.504;2023-02-14T03:43:09;102666.97;;;2.69;100.00
51259;BME280;37327;54.254;18.504;2023-02-14T03:46:19;102668.84;;;2.67;100.00
51259;BME280;37327;54.254;18.504;2023-02-14T03:49:29;102668.06;;;2.65;100.00
51259;BME280;37327;54.254;18.504;2023-02-14T03:52:39;102669.02;;;2.64;100.00
51259;BME280;37327;54.254;18.504;2023-02-14T03:59:09;102664.69;;;2.62;100.00
51259;BME280;37327;54.254;18.504;2023-02-14T04:02:28;102662.20;;;2.59;100.00
51259;BME280;37327;54.254;18.504;2023-02-14T04:05:37;102678.26;;;2.57;100.00
51259;BME280;37327;54.254;18.504;2023-02-14T04:08:51;102675.60;;;2.57;100.00
51259;BME280;37327;54.254;18.504;2023-02-14T04:11:58;102676.38;;;2.59;100.00
51259;BME280;37327;54.254;18.504;2023-02-14T04:15:05;102676.38;;;2.59;100.00
51259;BME280;37327;54.254;18.504;2023-02-14T04:18:13;102674.50;;;2.61;100.00
51259;BME280;37327;54.254;18.504;2023-02-14T04:21:31;102668.16;;;2.64;100.00
51259;BME280;37327;54.254;18.504;2023-02-14T04:24:38;102667.14;;;2.66;100.00
51259;BME280;37327;54.254;18.504;2023-02-14T04:27:46;102669.88;;;2.65;100.00
51259;BME280;37327;54.254;18.504;2023-02-14T04:30:53;102674.35;;;2.64;100.00
51259;BME280;37327;54.254;18.504;2023-02-14T04:33:59;102669.94;;;2.63;100.00
51259;BME280;37327;54.254;18.504;2023-02-14T04:37:06;102679.69;;;2.64;100.00
51259;BME280;37327;54.254;18.504;2023-02-14T04:40:13;102680.62;;;2.63;100.00
51259;BME280;37327;54.254;18.504;2023-02-14T04:43:23;102663.69;;;2.64;100.00
51259;BME280;37327;54.254;18.504;2023-02-14T04:46:30;102658.35;;;2.64;100.00
51259;BME280;37327;54.254;18.504;2023-02-14T04:49:37;102662.91;;;2.62;100.00
51259;BME280;37327;54.254;18.504;2023-02-14T04:52:44;102671.05;;;2.59;100.00
51259;BME280;37327;54.254;18.504;2023-02-14T04:55:51;102663.13;;;2.57;100.00
51259;BME280;37327;54.254;18.504;2023-02-14T04:58:59;102667.60;;;2.57;100.00
51259;BME280;37327;54.254;18.504;2023-02-14T05:02:06;102672.00;;;2.58;100.00
51259;BME280;37327;54.254;18.504;2023-02-14T05:05:13;102672.00;;;2.58;100.00
51259;BME280;37327;54.254;18.504;2023-02-14T05:08:20;102673.72;;;2.59;100.00
51259;BME280;37327;54.254;18.504;2023-02-14T05:11:28;102673.72;;;2.59;100.00
51259;BME280;37327;54.254;18.504;2023-02-14T05:14:35;102678.11;;;2.60;100.00
51259;BME280;37327;54.254;18.504;2023-02-14T05:17:41;102677.16;;;2.61;100.00
51259;BME280;37327;54.254;18.504;2023-02-14T05:20:49;102688.63;;;2.63;100.00
51259;BME280;37327;54.254;18.504;2023-02-14T05:23:56;102691.28;;;2.63;100.00
51259;BME280;37327;54.254;18.504;2023-02-14T05:27:03;102681.51;;;2.64;100.00
51259;BME280;37327;54.254;18.504;2023-02-14T05:30:12;102689.50;;;2.64;100.00
51259;BME280;37327;54.254;18.504;2023-02-14T05:33:19;102690.49;;;2.61;100.00
51259;BME280;37327;54.254;18.504;2023-02-14T05:36:26;102696.62;;;2.63;100.00
51259;BME280;37327;54.254;18.504;2023-02-14T05:39:33;102698.42;;;2.63;100.00
51259;BME280;37327;54.254;18.504;2023-02-14T05:42:40;102696.79;;;2.60;100.00
51259;BME280;37327;54.254;18.504;2023-02-14T05:45:47;102704.80;;;2.60;100.00
51259;BME280;37327;54.254;18.504;2023-02-14T05:48:54;102703.05;;;2.59;100.00
51259;BME280;37327;54.254;18.504;2023-02-14T05:52:00;102712.13;;;2.55;100.00
51259;BME280;37327;54.254;18.504;2023-02-14T05:55:08;102722.94;;;2.52;100.00
51259;BME280;37327;54.254;18.504;2023-02-14T05:58:15;102727.41;;;2.51;100.00
51259;BME280;37327;54.254;18.504;2023-02-14T06:01:22;102720.38;;;2.50;100.00
51259;BME280;37327;54.254;18.504;2023-02-14T06:04:30;102714.16;;;2.50;100.00
51259;BME280;37327;54.254;18.504;2023-02-14T06:07:36;102724.83;;;2.50;100.00
51259;BME280;37327;54.254;18.504;2023-02-14T06:10:45;102729.37;;;2.48;100.00
51259;BME280;37327;54.254;18.504;2023-02-14T06:13:52;102725.91;;;2.46;100.00
51259;BME280;37327;54.254;18.504;2023-02-14T06:16:59;102734.88;;;2.45;100.00
51259;BME280;37327;54.254;18.504;2023-02-14T06:20:08;102738.52;;;2.42;100.00
51259;BME280;37327;54.254;18.504;2023-02-14T06:23:15;102745.61;;;2.43;100.00
51259;BME280;37327;54.254;18.504;2023-02-14T06:26:22;102734.88;;;2.45;100.00
51259;BME280;37327;54.254;18.504;2023-02-14T06:29:34;102749.05;;;2.45;100.00
51259;BME280;37327;54.254;18.504;2023-02-14T06:32:41;102749.05;;;2.45;100.00
51259;BME280;37327;54.254;18.504;2023-02-14T06:35:48;102748.03;;;2.48;100.00
51259;BME280;37327;54.254;18.504;2023-02-14T06:38:55;102755.97;;;2.49;100.00
51259;BME280;37327;54.254;18.504;2023-02-14T06:42:03;102761.16;;;2.52;100.00
51259;BME280;37327;54.254;18.504;2023-02-14T06:45:10;102755.59;;;2.57;100.00
51259;BME280;37327;54.254;18.504;2023-02-14T06:48:18;102761.78;;;2.57;100.00
51259;BME280;37327;54.254;18.504;2023-02-14T06:51:25;102758.91;;;2.62;100.00
51259;BME280;37327;54.254;18.504;2023-02-14T06:54:32;102753.41;;;2.65;100.00
51259;BME280;37327;54.254;18.504;2023-02-14T06:57:39;102754.19;;;2.67;100.00
51259;BME280;37327;54.254;18.504;2023-02-14T07:00:46;102760.41;;;2.68;100.00
51259;BME280;37327;54.254;18.504;2023-02-14T07:03:53;102785.35;;;2.67;100.00
51259;BME280;37327;54.254;18.504;2023-02-14T07:07:00;102764.72;;;2.70;100.00
51259;BME280;37327;54.254;18.504;2023-02-14T07:10:07;102760.12;;;2.74;100.00
51259;BME280;37327;54.254;18.504;2023-02-14T07:13:15;102773.45;;;2.74;100.00
51259;BME280;37327;54.254;18.504;2023-02-14T07:16:22;102788.50;;;2.75;100.00
51259;BME280;37327;54.254;18.504;2023-02-14T07:19:29;102773.22;;;2.79;100.00
51259;BME280;37327;54.254;18.504;2023-02-14T07:22:36;102774.65;;;2.86;100.00
51259;BME280;37327;54.254;18.504;2023-02-14T07:25:43;102773.38;;;2.93;100.00
51259;BME280;37327;54.254;18.504;2023-02-14T07:28:50;102779.36;;;2.98;100.00
51259;BME280;37327;54.254;18.504;2023-02-14T07:31:57;102788.02;;;3.03;100.00
51259;BME280;37327;54.254;18.504;2023-02-14T07:35:05;102777.88;;;3.10;100.00
51259;BME280;37327;54.254;18.504;2023-02-14T07:38:12;102789.13;;;3.16;100.00
51259;BME280;37327;54.254;18.504;2023-02-14T07:41:19;102803.95;;;3.22;100.00
51259;BME280;37327;54.254;18.504;2023-02-14T07:44:26;102792.10;;;3.28;100.00
51259;BME280;37327;54.254;18.504;2023-02-14T07:47:33;102788.24;;;3.33;100.00
51259;BME280;37327;54.254;18.504;2023-02-14T07:50:40;102786.15;;;3.40;100.00
51259;BME280;37327;54.254;18.504;2023-02-14T07:53:47;102791.16;;;3.46;100.00
51259;BME280;37327;54.254;18.504;2023-02-14T07:56:55;102790.14;;;3.49;100.00
51259;BME280;37327;54.254;18.504;2023-02-14T08:00:04;102802.38;;;3.53;100.00
51259;BME280;37327;54.254;18.504;2023-02-14T08:03:12;102803.09;;;3.56;100.00
51259;BME280;37327;54.254;18.504;2023-02-14T08:06:19;102793.04;;;3.62;100.00
51259;BME280;37327;54.254;18.504;2023-02-14T08:09:27;102808.96;;;3.63;100.00
51259;BME280;37327;54.254;18.504;2023-02-14T08:12:33;102793.82;;;3.64;100.00
51259;BME280;37327;54.254;18.504;2023-02-14T08:15:52;102798.06;;;3.68;100.00
51259;BME280;37327;54.254;18.504;2023-02-14T08:19:11;102806.07;;;3.68;100.00
51259;BME280;37327;54.254;18.504;2023-02-14T08:22:18;102819.49;;;3.66;100.00
51259;BME280;37327;54.254;18.504;2023-02-14T08:25:25;102822.09;;;3.68;100.00
51259;BME280;37327;54.254;18.504;2023-02-14T08:28:32;102814.69;;;3.73;100.00
51259;BME280;37327;54.254;18.504;2023-02-14T08:31:40;102822.92;;;3.86;100.00
51259;BME280;37327;54.254;18.504;2023-02-14T08:34:47;102825.05;;;3.97;100.00
51259;BME280;37327;54.254;18.504;2023-02-14T08:37:53;102827.05;;;4.09;100.00
51259;BME280;37327;54.254;18.504;2023-02-14T08:41:01;102827.41;;;4.19;100.00
51259;BME280;37327;54.254;18.504;2023-02-14T08:44:08;102827.59;;;4.31;100.00
51259;BME280;37327;54.254;18.504;2023-02-14T08:47:15;102836.59;;;4.46;100.00
51259;BME280;37327;54.254;18.504;2023-02-14T08:50:22;102822.28;;;4.79;100.00
51259;BME280;37327;54.254;18.504;2023-02-14T08:53:29;102828.38;;;4.97;100.00
51259;BME280;37327;54.254;18.504;2023-02-14T08:56:38;102822.22;;;5.11;100.00
51259;BME280;37327;54.254;18.504;2023-02-14T08:59:46;102806.48;;;5.21;100.00
51259;BME280;37327;54.254;18.504;2023-02-14T09:02:53;102815.43;;;5.36;100.00
51259;BME280;37327;54.254;18.504;2023-02-14T09:06:04;102812.18;;;5.45;100.00
51259;BME280;37327;54.254;18.504;2023-02-14T09:09:12;102806.57;;;5.49;100.00
51259;BME280;37327;54.254;18.504;2023-02-14T09:12:19;102808.11;;;5.53;100.00
51259;BME280;37327;54.254;18.504;2023-02-14T09:15:26;102809.05;;;5.52;100.00
51259;BME280;37327;54.254;18.504;2023-02-14T09:18:34;102811.17;;;5.62;100.00
51259;BME280;37327;54.254;18.504;2023-02-14T09:21:41;102802.50;;;5.72;100.00
51259;BME280;37327;54.254;18.504;2023-02-14T09:24:48;102794.55;;;5.85;100.00
51259;BME280;37327;54.254;18.504;2023-02-14T09:27:55;102800.48;;;5.90;100.00
51259;BME280;37327;54.254;18.504;2023-02-14T09:31:09;102806.63;;;5.92;100.00
51259;BME280;37327;54.254;18.504;2023-02-14T09:34:16;102813.54;;;5.97;100.00
51259;BME280;37327;54.254;18.504;2023-02-14T09:37:29;102819.68;;;5.99;100.00
51259;BME280;37327;54.254;18.504;2023-02-14T09:40:36;102809.80;;;5.99;100.00
51259;BME280;37327;54.254;18.504;2023-02-14T09:43:50;102823.85;;;5.88;100.00
51259;BME280;37327;54.254;18.504;2023-02-14T09:50:27;102831.84;;;5.60;99.99
51259;BME280;37327;54.254;18.504;2023-02-14T09:53:59;102825.89;;;5.54;100.00
51259;BME280;37327;54.254;18.504;2023-02-14T10:00:26;102823.70;;;5.47;100.00
51259;BME280;37327;54.254;18.504;2023-02-14T10:17:02;102833.92;;;5.54;100.00
51259;BME280;37327;54.254;18.504;2023-02-14T10:20:25;102833.58;;;5.61;100.00
51259;BME280;37327;54.254;18.504;2023-02-14T10:23:37;102836.27;;;5.61;99.38
51259;BME280;37327;54.254;18.504;2023-02-14T10:26:49;102823.05;;;5.72;99.95
51259;BME280;37327;54.254;18.504;2023-02-14T10:29:56;102829.60;;;5.82;99.97
51259;BME280;37327;54.254;18.504;2023-02-14T10:53:14;102821.27;;;6.59;97.53
51259;BME280;37327;54.254;18.504;2023-02-14T10:56:22;102817.67;;;6.72;96.21
51259;BME280;37327;54.254;18.504;2023-02-14T11:02:56;102820.14;;;6.76;94.35
51259;BME280;37327;54.254;18.504;2023-02-14T11:06:07;102824.66;;;6.75;94.03
51259;BME280;37327;54.254;18.504;2023-02-14T11:09:15;102825.91;;;6.69;93.77
51259;BME280;37327;54.254;18.504;2023-02-14T11:12:32;102821.05;;;6.62;93.21
51259;BME280;37327;54.254;18.504;2023-02-14T11:15:39;102819.92;;;6.51;93.10
51259;BME280;37327;54.254;18.504;2023-02-14T11:18:46;102830.65;;;6.51;93.89
51259;BME280;37327;54.254;18.504;2023-02-14T11:21:59;102827.98;;;6.51;93.49
51259;BME280;37327;54.254;18.504;2023-02-14T11:25:22;102814.86;;;6.47;93.02
51259;BME280;37327;54.254;18.504;2023-02-14T11:28:25;102813.11;;;6.46;92.44
51259;BME280;37327;54.254;18.504;2023-02-14T11:31:37;102811.88;;;6.51;92.78
51259;BME280;37327;54.254;18.504;2023-02-14T11:34:54;102808.69;;;6.59;92.61
51259;BME280;37327;54.254;18.504;2023-02-14T11:38:05;102800.41;;;6.77;92.85
51259;BME280;37327;54.254;18.504;2023-02-14T11:41:14;102799.39;;;6.92;92.63
51259;BME280;37327;54.254;18.504;2023-02-14T11:44:25;102796.39;;;6.97;91.76
51259;BME280;37327;54.254;18.504;2023-02-14T11:47:34;102796.39;;;6.97;91.25
51259;BME280;37327;54.254;18.504;2023-02-14T11:51:01;102793.27;;;6.90;90.74
51259;BME280;37327;54.254;18.504;2023-02-14T11:57:37;102801.10;;;6.93;91.52
51259;BME280;37327;54.254;18.504;2023-02-14T12:00:50;102795.95;;;6.90;90.50
51259;BME280;37327;54.254;18.504;2023-02-14T12:04:14;102798.07;;;6.85;90.22
51259;BME280;37327;54.254;18.504;2023-02-14T12:07:26;102798.83;;;6.87;91.07
51259;BME280;37327;54.254;18.504;2023-02-14T12:10:35;102794.97;;;6.91;91.05
51259;BME280;37327;54.254;18.504;2023-02-14T12:13:51;102792.10;;;6.94;91.45
51259;BME280;37327;54.254;18.504;2023-02-14T12:23:45;102781.34;;;6.94;91.71
51259;BME280;37327;54.254;18.504;2023-02-14T12:27:03;102785.50;;;6.85;91.64
51259;BME280;37327;54.254;18.504;2023-02-14T12:30:15;102780.09;;;6.72;91.80
51259;BME280;37327;54.254;18.504;2023-02-14T12:33:23;102791.23;;;6.66;92.13
51259;BME280;37327;54.254;18.504;2023-02-14T12:53:20;102782.40;;;6.37;92.63
51259;BME280;37327;54.254;18.504;2023-02-14T13:06:30;102791.50;;;6.20;93.51
51259;BME280;37327;54.254;18.504;2023-02-14T13:09:46;102786.93;;;6.08;93.24
51259;BME280;37327;54.254;18.504;2023-02-14T13:16:28;102778.60;;;5.98;94.14
51259;BME280;37327;54.254;18.504;2023-02-14T13:23:01;102777.70;;;5.83;94.66
51259;BME280;37327;54.254;18.504;2023-02-14T13:26:13;102775.60;;;5.88;95.07
51259;BME280;37327;54.254;18.504;2023-02-14T13:29:27;102774.06;;;5.84;94.94
51259;BME280;37327;54.254;18.504;2023-02-14T13:32:39;102768.03;;;5.81;95.02
51259;BME280;37327;54.254;18.504;2023-02-14T13:35:47;102769.86;;;5.80;95.30
51259;BME280;37327;54.254;18.504;2023-02-14T13:38:57;102762.67;;;5.81;95.35
51259;BME280;37327;54.254;18.504;2023-02-14T13:42:05;102763.73;;;5.78;95.25
51259;BME280;37327;54.254;18.504;2023-02-14T13:48:31;102771.57;;;5.67;95.36
51259;BME280;37327;54.254;18.504;2023-02-14T13:51:52;102764.48;;;5.66;95.81
51259;BME280;37327;54.254;18.504;2023-02-14T13:55:06;102763.71;;;5.64;95.64
51259;BME280;37327;54.254;18.504;2023-02-14T13:58:18;102760.46;;;5.59;95.72
51259;BME280;37327;54.254;18.504;2023-02-14T14:01:38;102777.86;;;5.51;96.01
51259;BME280;37327;54.254;18.504;2023-02-14T14:04:47;102763.39;;;5.40;96.14
51259;BME280;37327;54.254;18.504;2023-02-14T14:14:35;102770.57;;;5.09;96.96
51259;BME280;37327;54.254;18.504;2023-02-14T14:18:29;102766.53;;;5.02;97.41
51259;BME280;37327;54.254;18.504;2023-02-14T14:21:13;102772.00;;;5.00;97.85
51259;BME280;37327;54.254;18.504;2023-02-14T14:24:26;102771.80;;;5.03;97.94
51259;BME280;37327;54.254;18.504;2023-02-14T14:27:43;102768.19;;;5.04;98.04
51259;BME280;37327;54.254;18.504;2023-02-14T14:30:52;102762.82;;;5.04;98.09
51259;BME280;37327;54.254;18.504;2023-02-14T14:34:00;102766.97;;;4.94;97.75
51259;BME280;37327;54.254;18.504;2023-02-14T14:37:18;102768.47;;;4.84;97.86
51259;BME280;37327;54.254;18.504;2023-02-14T14:40:31;102766.31;;;4.74;98.19
51259;BME280;37327;54.254;18.504;2023-02-14T14:43:40;102772.23;;;4.65;98.57
51259;BME280;37327;54.254;18.504;2023-02-14T14:46:48;102767.23;;;4.59;99.03
51259;BME280;37327;54.254;18.504;2023-02-14T14:49:59;102776.45;;;4.53;99.34
51259;BME280;37327;54.254;18.504;2023-02-14T14:53:18;102769.64;;;4.48;99.62
51259;BME280;37327;54.254;18.504;2023-02-14T14:56:34;102756.42;;;4.45;99.94
51259;BME280;37327;54.254;18.504;2023-02-14T14:59:41;102763.09;;;4.38;100.00
51259;BME280;37327;54.254;18.504;2023-02-14T15:02:57;102762.56;;;4.31;100.00
51259;BME280;37327;54.254;18.504;2023-02-14T15:09:30;102772.90;;;4.21;100.00
51259;BME280;37327;54.254;18.504;2023-02-14T15:12:38;102777.66;;;4.16;100.00
51259;BME280;37327;54.254;18.504;2023-02-14T15:15:57;102775.15;;;4.13;100.00
51259;BME280;37327;54.254;18.504;2023-02-14T15:22:32;102776.52;;;4.04;100.00
51259;BME280;37327;54.254;18.504;2023-02-14T15:25:43;102779.27;;;4.03;100.00
51259;BME280;37327;54.254;18.504;2023-02-14T15:28:56;102774.93;;;4.00;100.00
51259;BME280;37327;54.254;18.504;2023-02-14T15:32:05;102777.87;;;3.95;100.00
51259;BME280;37327;54.254;18.504;2023-02-14T15:35:16;102773.01;;;3.86;100.00
51259;BME280;37327;54.254;18.504;2023-02-14T15:38:25;102765.25;;;3.82;100.00
51259;BME280;37327;54.254;18.504;2023-02-14T15:41:34;102773.53;;;3.77;100.00
51259;BME280;37327;54.254;18.504;2023-02-14T15:44:42;102781.69;;;3.74;100.00
51259;BME280;37327;54.254;18.504;2023-02-14T15:47:51;102779.95;;;3.73;100.00
51259;BME280;37327;54.254;18.504;2023-02-14T15:51:00;102773.83;;;3.71;100.00
51259;BME280;37327;54.254;18.504;2023-02-14T15:54:18;102777.80;;;3.64;100.00
51259;BME280;37327;54.254;18.504;2023-02-14T15:57:27;102779.58;;;3.63;100.00
51259;BME280;37327;54.254;18.504;2023-02-14T16:00:35;102778.89;;;3.60;100.00
51259;BME280;37327;54.254;18.504;2023-02-14T16:03:48;102777.09;;;3.60;100.00
51259;BME280;37327;54.254;18.504;2023-02-14T16:07:05;102781.57;;;3.60;100.00
51259;BME280;37327;54.254;18.504;2023-02-14T16:13:35;102792.55;;;3.53;100.00
51259;BME280;37327;54.254;18.504;2023-02-14T16:23:26;102784.33;;;3.41;100.00
51259;BME280;37327;54.254;18.504;2023-02-14T16:26:37;102794.38;;;3.35;100.00
51259;BME280;37327;54.254;18.504;2023-02-14T16:29:44;102790.30;;;3.28;100.00
51259;BME280;37327;54.254;18.504;2023-02-14T16:32:51;102796.75;;;3.24;100.00
51259;BME280;37327;54.254;18.504;2023-02-14T16:36:07;102789.73;;;3.22;100.00
51259;BME280;37327;54.254;18.504;2023-02-14T16:39:20;102795.33;;;3.17;100.00
51259;BME280;37327;54.254;18.504;2023-02-14T16:42:30;102791.02;;;3.14;100.00
51259;BME280;37327;54.254;18.504;2023-02-14T16:45:38;102792.97;;;3.11;100.00
51259;BME280;37327;54.254;18.504;2023-02-14T16:48:46;102800.26;;;3.07;100.00
51259;BME280;37327;54.254;18.504;2023-02-14T16:51:57;102794.20;;;3.04;100.00
51259;BME280;37327;54.254;18.504;2023-02-14T16:55:05;102793.49;;;3.00;100.00
51259;BME280;37327;54.254;18.504;2023-02-14T16:58:13;102795.38;;;2.98;100.00
51259;BME280;37327;54.254;18.504;2023-02-14T17:01:20;102806.05;;;2.98;100.00
51259;BME280;37327;54.254;18.504;2023-02-14T17:04:26;102801.67;;;2.97;100.00
51259;BME280;37327;54.254;18.504;2023-02-14T17:07:34;102799.20;;;2.92;100.00
51259;BME280;37327;54.254;18.504;2023-02-14T17:10:44;102800.23;;;2.90;100.00
51259;BME280;37327;54.254;18.504;2023-02-14T17:13:54;102796.85;;;2.86;100.00
51259;BME280;37327;54.254;18.504;2023-02-14T17:17:01;102805.81;;;2.85;100.00
51259;BME280;37327;54.254;18.504;2023-02-14T17:20:09;102805.95;;;2.82;100.00
51259;BME280;37327;54.254;18.504;2023-02-14T17:23:17;102800.61;;;2.82;100.00
51259;BME280;37327;54.254;18.504;2023-02-14T17:26:26;102789.22;;;2.79;100.00
51259;BME280;37327;54.254;18.504;2023-02-14T17:29:33;102794.55;;;2.79;100.00
51259;BME280;37327;54.254;18.504;2023-02-14T17:32:40;102793.84;;;2.75;100.00
51259;BME280;37327;54.254;18.504;2023-02-14T17:35:47;102788.60;;;2.73;100.00
51259;BME280;37327;54.254;18.504;2023-02-14T17:38:56;102796.61;;;2.73;100.00
51259;BME280;37327;54.254;18.504;2023-02-14T17:42:04;102794.99;;;2.69;100.00
51259;BME280;37327;54.254;18.504;2023-02-14T17:45:10;102791.54;;;2.67;100.00
51259;BME280;37327;54.254;18.504;2023-02-14T17:48:17;102802.38;;;2.64;100.00
51259;BME280;37327;54.254;18.504;2023-02-14T17:51:24;102803.30;;;2.63;100.00
51259;BME280;37327;54.254;18.504;2023-02-14T17:54:35;102799.84;;;2.61;100.00
51259;BME280;37327;54.254;18.504;2023-02-14T17:57:43;102800.63;;;2.63;100.00
51259;BME280;37327;54.254;18.504;2023-02-14T18:00:50;102797.11;;;2.63;100.00
51259;BME280;37327;54.254;18.504;2023-02-14T18:03:57;102805.95;;;2.63;100.00
51259;BME280;37327;54.254;18.504;2023-02-14T18:07:04;102812.20;;;2.64;100.00
51259;BME280;37327;54.254;18.504;2023-02-14T18:10:12;102817.36;;;2.67;100.00
51259;BME280;37327;54.254;18.504;2023-02-14T18:13:19;102810.20;;;2.67;100.00
51259;BME280;37327;54.254;18.504;2023-02-14T18:16:26;102809.29;;;2.68;100.00
51259;BME280;37327;54.254;18.504;2023-02-14T18:19:33;102813.67;;;2.69;100.00
51259;BME280;37327;54.254;18.504;2023-02-14T18:22:40;102818.80;;;2.74;100.00
51259;BME280;37327;54.254;18.504;2023-02-14T18:25:52;102810.63;;;2.77;100.00
51259;BME280;37327;54.254;18.504;2023-02-14T18:28:57;102812.30;;;2.80;100.00
51259;BME280;37327;54.254;18.504;2023-02-14T18:32:04;102819.35;;;2.81;100.00
51259;BME280;37327;54.254;18.504;2023-02-14T18:35:11;102828.38;;;2.78;100.00
51259;BME280;37327;54.254;18.504;2023-02-14T18:38:19;102828.30;;;2.80;100.00
51259;BME280;37327;54.254;18.504;2023-02-14T18:41:26;102814.97;;;2.80;100.00
51259;BME280;37327;54.254;18.504;2023-02-14T18:44:35;102822.20;;;2.78;100.00
51259;BME280;37327;54.254;18.504;2023-02-14T18:47:43;102823.90;;;2.79;100.00
51259;BME280;37327;54.254;18.504;2023-02-14T18:50:49;102808.68;;;2.81;100.00
51259;BME280;37327;54.254;18.504;2023-02-14T18:53:58;102798.96;;;2.80;100.00
51259;BME280;37327;54.254;18.504;2023-02-14T18:57:05;102802.55;;;2.79;100.00
51259;BME280;37327;54.254;18.504;2023-02-14T19:00:14;102800.84;;;2.78;100.00
51259;BME280;37327;54.254;18.504;2023-02-14T19:03:21;102801.77;;;2.76;100.00
51259;BME280;37327;54.254;18.504;2023-02-14T19:06:30;102791.95;;;2.77;100.00
51259;BME280;37327;54.254;18.504;2023-02-14T19:09:39;102792.84;;;2.78;100.00
51259;BME280;37327;54.254;18.504;2023-02-14T19:12:48;102786.72;;;2.75;100.00
51259;BME280;37327;54.254;18.504;2023-02-14T19:15:55;102786.63;;;2.77;100.00